Flugplatz Schwabmünchen

Für EDNS sind keine METAR/TAF Berichte vorhanden.
Es werden die Flugwettermeldungen vom Flugplatz Lechfeld Airport in 11 km Entfernung angezeigt.

Bericht für ETSL

vom 20.10. um 02:20 UTC

Wind 8 kt aus 180°

Sichtweite 10 km oder mehr

aufgelockert bewölkt in 32000 ft

Temperatur 9.0°C

Taupunkt 6.0°C

Luftfeuchtigkeit 81%

Luftdruck 1020 hPa

ETSL 200220Z 18008KT 9999 SCT320 09/06 Q1020 BLU+
Keine Prognose (TAF) verfügbar.
Impressum